CCA2688 ZUUU-ZUXC
Flight info
| Callsign | CCA2688 |
|---|---|
| Flight time | 0h 32m |
| Altitude | 26000 |
| Route | ZUUU DCT ZUXC |
| Aircraft | A320/M-SDE1GH/LB1 |
Departure
| Time | 2026-04-29 12:42 |
|---|---|
| Airport | Chengdu Shuangliu International Airport (ZUUU) |
Arrival
| Time | 2026-04-29 13:14 |
|---|---|
| Airport | Xichang Qingshan Airport (ZUXC) |
| Time | Latitude | Longitude | Altitude | Speed | Heading |
|---|---|---|---|---|---|
| 2026-04-29 12:25 | 30.59581 | 103.95902 | 1638 ft | 0 kts | 107° |
| 2026-04-29 12:29 | 30.59584 | 103.95890 | 1647 ft | 6 kts | 107° |
| 2026-04-29 12:29 | 30.59596 | 103.95848 | 1647 ft | 5 kts | 112° |
| 2026-04-29 12:30 | 30.59603 | 103.95832 | 1647 ft | 2 kts | 133° |
| 2026-04-29 12:30 | 30.59612 | 103.95825 | 1647 ft | 2 kts | 188° |
| 2026-04-29 12:30 | 30.59623 | 103.95828 | 1647 ft | 2 kts | 201° |
| 2026-04-29 12:30 | 30.59627 | 103.95830 | 1648 ft | 0 kts | 202° |
| 2026-04-29 12:31 | 30.59612 | 103.95823 | 1647 ft | 4 kts | 202° |
| 2026-04-29 12:32 | 30.59574 | 103.95806 | 1647 ft | 9 kts | 201° |
| 2026-04-29 12:32 | 30.59509 | 103.95777 | 1647 ft | 11 kts | 200° |
| 2026-04-29 12:32 | 30.59435 | 103.95745 | 1647 ft | 12 kts | 200° |
| 2026-04-29 12:32 | 30.59355 | 103.95709 | 1647 ft | 13 kts | 201° |
| 2026-04-29 12:33 | 30.59275 | 103.95674 | 1647 ft | 12 kts | 201° |
| 2026-04-29 12:33 | 30.59192 | 103.95636 | 1647 ft | 13 kts | 201° |
| 2026-04-29 12:33 | 30.59103 | 103.95595 | 1647 ft | 14 kts | 202° |
| 2026-04-29 12:33 | 30.59008 | 103.95551 | 1647 ft | 15 kts | 202° |
| 2026-04-29 12:34 | 30.58890 | 103.95497 | 1647 ft | 22 kts | 201° |
| 2026-04-29 12:34 | 30.58729 | 103.95422 | 1648 ft | 28 kts | 202° |
| 2026-04-29 12:34 | 30.58536 | 103.95330 | 1648 ft | 31 kts | 202° |
| 2026-04-29 12:34 | 30.58331 | 103.95232 | 1647 ft | 32 kts | 202° |
| 2026-04-29 12:35 | 30.58114 | 103.95135 | 1647 ft | 34 kts | 202° |
| 2026-04-29 12:35 | 30.57893 | 103.95030 | 1647 ft | 35 kts | 202° |
| 2026-04-29 12:35 | 30.57675 | 103.94927 | 1647 ft | 33 kts | 202° |
| 2026-04-29 12:35 | 30.57466 | 103.94830 | 1647 ft | 32 kts | 202° |
| 2026-04-29 12:36 | 30.57261 | 103.94735 | 1647 ft | 31 kts | 202° |
| 2026-04-29 12:36 | 30.57062 | 103.94641 | 1647 ft | 30 kts | 202° |
| 2026-04-29 12:36 | 30.56866 | 103.94567 | 1647 ft | 29 kts | 201° |
| 2026-04-29 12:36 | 30.56681 | 103.94481 | 1648 ft | 28 kts | 202° |
| 2026-04-29 12:37 | 30.56501 | 103.94395 | 1648 ft | 28 kts | 202° |
| 2026-04-29 12:37 | 30.56323 | 103.94310 | 1648 ft | 28 kts | 202° |
| 2026-04-29 12:37 | 30.56135 | 103.94223 | 1647 ft | 29 kts | 201° |
| 2026-04-29 12:37 | 30.55946 | 103.94136 | 1647 ft | 29 kts | 201° |
| 2026-04-29 12:38 | 30.55755 | 103.94104 | 1648 ft | 27 kts | 167° |
| 2026-04-29 12:38 | 30.55580 | 103.94183 | 1648 ft | 27 kts | 157° |
| 2026-04-29 12:38 | 30.55408 | 103.94268 | 1648 ft | 27 kts | 156° |
| 2026-04-29 12:38 | 30.55251 | 103.94347 | 1648 ft | 20 kts | 156° |
| 2026-04-29 12:39 | 30.55159 | 103.94454 | 1648 ft | 19 kts | 112° |
| 2026-04-29 12:39 | 30.55109 | 103.94596 | 1648 ft | 19 kts | 112° |
| 2026-04-29 12:39 | 30.55062 | 103.94725 | 1647 ft | 17 kts | 113° |
| 2026-04-29 12:39 | 30.55016 | 103.94853 | 1647 ft | 18 kts | 112° |
| 2026-04-29 12:40 | 30.54992 | 103.94918 | 1646 ft | 7 kts | 112° |
| 2026-04-29 12:40 | 30.54984 | 103.94942 | 1645 ft | 0 kts | 112° |
| 2026-04-29 12:40 | 30.54983 | 103.94944 | 1645 ft | 2 kts | 112° |
| 2026-04-29 12:40 | 30.54962 | 103.95001 | 1643 ft | 11 kts | 113° |
| 2026-04-29 12:41 | 30.54910 | 103.95044 | 1643 ft | 10 kts | 199° |
| 2026-04-29 12:41 | 30.54813 | 103.94999 | 1645 ft | 40 kts | 201° |
| 2026-04-29 12:41 | 30.54307 | 103.94765 | 1649 ft | 115 kts | 202° |
| 2026-04-29 12:41 | 30.53354 | 103.94323 | 1765 ft | 173 kts | 202° |
| 2026-04-29 12:42 | 30.52143 | 103.93764 | 2304 ft | 201 kts | 201° |
| 2026-04-29 12:42 | 30.50715 | 103.93397 | 2926 ft | 220 kts | 183° |
| 2026-04-29 12:42 | 30.49129 | 103.93359 | 3581 ft | 238 kts | 181° |
| 2026-04-29 12:42 | 30.47466 | 103.93327 | 4226 ft | 242 kts | 181° |
| 2026-04-29 12:43 | 30.45751 | 103.93277 | 4860 ft | 258 kts | 181° |
| 2026-04-29 12:43 | 30.43886 | 103.93219 | 5534 ft | 271 kts | 181° |
| 2026-04-29 12:43 | 30.42003 | 103.93167 | 6206 ft | 272 kts | 181° |
| 2026-04-29 12:43 | 30.40096 | 103.93125 | 6922 ft | 276 kts | 181° |
| 2026-04-29 12:44 | 30.38169 | 103.93083 | 7657 ft | 278 kts | 181° |
| 2026-04-29 12:44 | 30.36215 | 103.93037 | 8340 ft | 283 kts | 181° |
| 2026-04-29 12:44 | 30.34241 | 103.92989 | 9030 ft | 284 kts | 181° |
| 2026-04-29 12:44 | 30.32258 | 103.92943 | 9762 ft | 287 kts | 181° |
| 2026-04-29 12:45 | 30.30227 | 103.92898 | 10419 ft | 299 kts | 181° |
| 2026-04-29 12:45 | 30.28084 | 103.92851 | 11116 ft | 316 kts | 181° |
| 2026-04-29 12:45 | 30.25836 | 103.92799 | 11851 ft | 329 kts | 181° |
| 2026-04-29 12:45 | 30.23510 | 103.92743 | 12658 ft | 339 kts | 181° |
| 2026-04-29 12:46 | 30.21115 | 103.92687 | 13392 ft | 351 kts | 181° |
| 2026-04-29 12:46 | 30.18619 | 103.92631 | 13937 ft | 366 kts | 181° |
| 2026-04-29 12:46 | 30.16025 | 103.92572 | 14537 ft | 379 kts | 181° |
| 2026-04-29 12:46 | 30.13353 | 103.92510 | 15130 ft | 390 kts | 181° |
| 2026-04-29 12:47 | 30.10608 | 103.92446 | 15766 ft | 398 kts | 181° |
| 2026-04-29 12:47 | 30.07810 | 103.92383 | 16397 ft | 406 kts | 181° |
| 2026-04-29 12:47 | 30.04970 | 103.92319 | 17032 ft | 410 kts | 181° |
| 2026-04-29 12:47 | 30.02110 | 103.92253 | 17660 ft | 412 kts | 181° |
| 2026-04-29 12:48 | 29.99231 | 103.92186 | 18296 ft | 415 kts | 181° |
| 2026-04-29 12:48 | 29.96320 | 103.92119 | 18883 ft | 420 kts | 181° |
| 2026-04-29 12:48 | 29.93382 | 103.92053 | 19496 ft | 424 kts | 181° |
| 2026-04-29 12:48 | 29.90417 | 103.91986 | 20023 ft | 429 kts | 181° |
| 2026-04-29 12:49 | 29.87436 | 103.91738 | 20535 ft | 432 kts | 191° |
| 2026-04-29 12:49 | 29.84593 | 103.90583 | 20837 ft | 437 kts | 208° |
| 2026-04-29 12:49 | 29.82183 | 103.88481 | 21165 ft | 435 kts | 226° |
| 2026-04-29 12:49 | 29.80398 | 103.85681 | 21494 ft | 437 kts | 238° |
| 2026-04-29 12:50 | 29.78808 | 103.82718 | 21524 ft | 443 kts | 238° |
| 2026-04-29 12:50 | 29.77186 | 103.79721 | 21511 ft | 439 kts | 238° |
| 2026-04-29 12:50 | 29.75565 | 103.76758 | 21496 ft | 437 kts | 238° |
| 2026-04-29 12:50 | 29.73943 | 103.73793 | 21491 ft | 438 kts | 238° |
| 2026-04-29 12:51 | 29.72321 | 103.70825 | 21490 ft | 438 kts | 238° |
| 2026-04-29 12:51 | 29.70700 | 103.67859 | 21493 ft | 438 kts | 238° |
| 2026-04-29 12:51 | 29.69077 | 103.64896 | 21498 ft | 438 kts | 238° |
| 2026-04-29 12:51 | 29.67453 | 103.61938 | 21502 ft | 437 kts | 238° |
| 2026-04-29 12:52 | 29.65832 | 103.58981 | 21505 ft | 437 kts | 238° |
| 2026-04-29 12:52 | 29.64211 | 103.56023 | 21508 ft | 438 kts | 238° |
| 2026-04-29 12:52 | 29.62587 | 103.53059 | 21490 ft | 438 kts | 238° |
| 2026-04-29 12:52 | 29.60962 | 103.50098 | 21484 ft | 437 kts | 238° |
| 2026-04-29 12:53 | 29.59340 | 103.47144 | 21466 ft | 437 kts | 238° |
| 2026-04-29 12:53 | 29.57720 | 103.44190 | 21457 ft | 438 kts | 238° |
| 2026-04-29 12:53 | 29.56095 | 103.41228 | 21447 ft | 440 kts | 238° |
| 2026-04-29 12:53 | 29.54458 | 103.38244 | 21433 ft | 443 kts | 238° |
| 2026-04-29 12:54 | 29.52809 | 103.35242 | 21426 ft | 444 kts | 238° |
| 2026-04-29 12:54 | 29.51435 | 103.32742 | 21418 ft | 448 kts | 238° |
| 2026-04-29 12:54 | 29.49760 | 103.29689 | 21424 ft | 452 kts | 238° |
| 2026-04-29 12:54 | 29.48100 | 103.26665 | 21421 ft | 445 kts | 238° |
| 2026-04-29 12:55 | 29.47007 | 103.24675 | 21395 ft | 445 kts | 238° |
| 2026-04-29 12:55 | 29.45351 | 103.21662 | 21330 ft | 445 kts | 238° |
| 2026-04-29 12:55 | 29.43701 | 103.18660 | 21163 ft | 446 kts | 238° |
| 2026-04-29 12:55 | 29.42045 | 103.15648 | 20978 ft | 447 kts | 238° |
| 2026-04-29 12:56 | 29.40390 | 103.12636 | 20778 ft | 445 kts | 238° |
| 2026-04-29 12:56 | 29.38739 | 103.09632 | 20587 ft | 445 kts | 238° |
| 2026-04-29 12:56 | 29.37099 | 103.06652 | 20396 ft | 438 kts | 238° |
| 2026-04-29 12:56 | 29.35484 | 103.03717 | 20133 ft | 435 kts | 238° |
| 2026-04-29 12:57 | 29.33862 | 103.00765 | 19851 ft | 442 kts | 238° |
| 2026-04-29 12:57 | 29.32244 | 102.97821 | 19573 ft | 432 kts | 238° |
| 2026-04-29 12:57 | 29.30636 | 102.94897 | 19297 ft | 431 kts | 238° |
| 2026-04-29 12:57 | 29.29062 | 102.92038 | 19022 ft | 423 kts | 238° |
| 2026-04-29 12:58 | 29.27487 | 102.89178 | 18749 ft | 426 kts | 238° |
| 2026-04-29 12:58 | 29.25911 | 102.86316 | 18477 ft | 424 kts | 238° |
| 2026-04-29 12:58 | 29.24328 | 102.83442 | 18210 ft | 425 kts | 238° |
| 2026-04-29 12:58 | 29.22774 | 102.80619 | 17939 ft | 420 kts | 238° |
| 2026-04-29 12:59 | 29.21217 | 102.77791 | 17674 ft | 417 kts | 238° |
| 2026-04-29 12:59 | 29.19684 | 102.75009 | 17401 ft | 421 kts | 238° |
| 2026-04-29 12:59 | 29.18124 | 102.72177 | 17118 ft | 419 kts | 238° |
| 2026-04-29 12:59 | 29.16568 | 102.69352 | 16838 ft | 418 kts | 238° |
| 2026-04-29 13:00 | 29.15022 | 102.66545 | 16559 ft | 416 kts | 238° |
| 2026-04-29 13:00 | 29.13481 | 102.63751 | 16418 ft | 414 kts | 238° |
| 2026-04-29 13:00 | 29.11948 | 102.60972 | 16379 ft | 414 kts | 238° |
| 2026-04-29 13:00 | 29.10410 | 102.58180 | 16340 ft | 416 kts | 238° |
| 2026-04-29 13:01 | 29.08866 | 102.55380 | 16301 ft | 415 kts | 238° |
| 2026-04-29 13:01 | 29.07328 | 102.52591 | 16252 ft | 415 kts | 238° |
| 2026-04-29 13:01 | 29.05785 | 102.49791 | 16209 ft | 415 kts | 238° |
| 2026-04-29 13:01 | 29.04254 | 102.47016 | 16158 ft | 413 kts | 238° |
| 2026-04-29 13:02 | 29.02715 | 102.44224 | 16107 ft | 418 kts | 238° |
| 2026-04-29 13:02 | 29.01164 | 102.41411 | 16012 ft | 418 kts | 238° |
| 2026-04-29 13:02 | 28.99623 | 102.38620 | 15810 ft | 412 kts | 238° |
| 2026-04-29 13:02 | 28.98080 | 102.35860 | 15532 ft | 412 kts | 236° |
| 2026-04-29 13:03 | 28.96360 | 102.33244 | 15260 ft | 413 kts | 230° |
| 2026-04-29 13:03 | 28.94430 | 102.30858 | 15086 ft | 406 kts | 224° |
| 2026-04-29 13:03 | 28.92292 | 102.28742 | 14940 ft | 407 kts | 218° |
| 2026-04-29 13:03 | 28.89942 | 102.26912 | 14802 ft | 410 kts | 211° |
| 2026-04-29 13:04 | 28.87417 | 102.25399 | 14675 ft | 410 kts | 204° |
| 2026-04-29 13:04 | 28.84799 | 102.24241 | 14571 ft | 408 kts | 198° |
| 2026-04-29 13:04 | 28.82047 | 102.23417 | 14463 ft | 410 kts | 191° |
| 2026-04-29 13:04 | 28.79232 | 102.22955 | 14372 ft | 407 kts | 185° |
| 2026-04-29 13:05 | 28.76423 | 102.22783 | 14287 ft | 403 kts | 182° |
| 2026-04-29 13:05 | 28.73620 | 102.22641 | 14195 ft | 403 kts | 182° |
| 2026-04-29 13:05 | 28.70821 | 102.22493 | 14110 ft | 401 kts | 182° |
| 2026-04-29 13:05 | 28.68045 | 102.22347 | 14017 ft | 399 kts | 182° |
| 2026-04-29 13:06 | 28.65263 | 102.22204 | 13926 ft | 401 kts | 182° |
| 2026-04-29 13:06 | 28.62477 | 102.22065 | 13790 ft | 399 kts | 182° |
| 2026-04-29 13:06 | 28.59702 | 102.21923 | 13631 ft | 400 kts | 182° |
| 2026-04-29 13:06 | 28.56927 | 102.21779 | 13479 ft | 397 kts | 182° |
| 2026-04-29 13:07 | 28.54181 | 102.21632 | 13321 ft | 394 kts | 182° |
| 2026-04-29 13:07 | 28.51435 | 102.21447 | 13163 ft | 395 kts | 186° |
| 2026-04-29 13:07 | 28.48731 | 102.20913 | 13011 ft | 393 kts | 191° |
| 2026-04-29 13:07 | 28.46052 | 102.20306 | 12857 ft | 393 kts | 191° |
| 2026-04-29 13:08 | 28.43361 | 102.19707 | 12641 ft | 394 kts | 191° |
| 2026-04-29 13:08 | 28.40683 | 102.19124 | 12425 ft | 389 kts | 191° |
| 2026-04-29 13:08 | 28.38041 | 102.18551 | 12126 ft | 387 kts | 191° |
| 2026-04-29 13:08 | 28.35390 | 102.17975 | 11795 ft | 386 kts | 191° |
| 2026-04-29 13:09 | 28.32765 | 102.17402 | 11480 ft | 383 kts | 191° |
| 2026-04-29 13:09 | 28.30140 | 102.16953 | 11143 ft | 381 kts | 183° |
| 2026-04-29 13:09 | 28.27493 | 102.17077 | 10830 ft | 380 kts | 174° |
| 2026-04-29 13:09 | 28.24902 | 102.17366 | 10527 ft | 363 kts | 174° |
| 2026-04-29 13:10 | 28.22461 | 102.17588 | 10181 ft | 342 kts | 177° |
| 2026-04-29 13:10 | 28.20145 | 102.17687 | 9827 ft | 325 kts | 178° |
| 2026-04-29 13:10 | 28.18029 | 102.17764 | 9521 ft | 276 kts | 178° |
| 2026-04-29 13:10 | 28.16309 | 102.17830 | 9279 ft | 229 kts | 178° |
| 2026-04-29 13:11 | 28.14816 | 102.17889 | 8989 ft | 203 kts | 178° |
| 2026-04-29 13:11 | 28.13457 | 102.17941 | 8611 ft | 190 kts | 178° |
| 2026-04-29 13:11 | 28.12166 | 102.17988 | 8221 ft | 182 kts | 178° |
| 2026-04-29 13:11 | 28.10918 | 102.18029 | 7822 ft | 176 kts | 178° |
| 2026-04-29 13:12 | 28.09714 | 102.18063 | 7419 ft | 170 kts | 179° |
| 2026-04-29 13:12 | 28.08576 | 102.18092 | 7044 ft | 157 kts | 179° |
| 2026-04-29 13:12 | 28.07496 | 102.18117 | 6680 ft | 154 kts | 179° |
| 2026-04-29 13:12 | 28.06427 | 102.18145 | 6347 ft | 153 kts | 178° |
| 2026-04-29 13:13 | 28.05367 | 102.18178 | 6067 ft | 155 kts | 178° |
| 2026-04-29 13:13 | 28.04271 | 102.18218 | 5832 ft | 159 kts | 178° |
| 2026-04-29 13:13 | 28.03174 | 102.18262 | 5636 ft | 154 kts | 178° |
| 2026-04-29 13:13 | 28.02119 | 102.18303 | 5432 ft | 151 kts | 178° |
| 2026-04-29 13:14 | 28.01069 | 102.18343 | 5238 ft | 151 kts | 178° |
| 2026-04-29 13:14 | 28.00048 | 102.18385 | 5086 ft | 137 kts | 178° |
| 2026-04-29 13:14 | 27.99276 | 102.18417 | 5084 ft | 75 kts | 178° |
| 2026-04-29 13:14 | 27.98885 | 102.18433 | 5084 ft | 49 kts | 178° |
| 2026-04-29 13:15 | 27.98575 | 102.18444 | 5083 ft | 40 kts | 178° |
| 2026-04-29 13:15 | 27.98337 | 102.18453 | 5084 ft | 22 kts | 178° |
| 2026-04-29 13:15 | 27.98252 | 102.18478 | 5084 ft | 10 kts | 131° |
| 2026-04-29 13:15 | 27.98246 | 102.18549 | 5083 ft | 9 kts | 88° |
| 2026-04-29 13:16 | 27.98216 | 102.18593 | 5083 ft | 7 kts | 167° |
| 2026-04-29 13:16 | 27.98176 | 102.18595 | 5083 ft | 5 kts | 178° |
| 2026-04-29 13:16 | 27.98155 | 102.18612 | 5083 ft | 4 kts | 118° |
| 2026-04-29 13:16 | 27.98156 | 102.18636 | 5083 ft | 5 kts | 88° |
| 2026-04-29 13:17 | 27.98157 | 102.18663 | 5082 ft | 1 kts | 88° |
| 2026-04-29 13:17 | 27.98157 | 102.18664 | 5082 ft | 0 kts | 88° |